createdAt,value
2019-03-24T00:00:12.180Z,10.20
2019-03-24T00:02:40.750Z,10.20
2019-03-24T00:05:09.428Z,10.20
2019-03-24T00:07:38.239Z,10.20
2019-03-24T00:10:07.581Z,10.20
2019-03-24T00:12:36.063Z,10.10
2019-03-24T00:15:07.209Z,10.10
2019-03-24T00:17:36.454Z,10.10
2019-03-24T00:20:06.531Z,10.10
2019-03-24T00:22:35.878Z,10.10
2019-03-24T00:25:06.442Z,10.10
2019-03-24T00:27:34.946Z,10.10
2019-03-24T00:30:05.028Z,10.10
2019-03-24T00:32:33.510Z,10.00
2019-03-24T00:35:02.025Z,9.90
2019-03-24T00:37:30.491Z,9.90
2019-03-24T00:39:58.963Z,10.00
2019-03-24T00:42:27.483Z,10.00
2019-03-24T00:44:56.034Z,10.00
2019-03-24T00:47:24.599Z,9.90
2019-03-24T00:49:53.014Z,9.90
2019-03-24T00:52:21.798Z,10.00
2019-03-24T00:54:50.226Z,9.90
2019-03-24T00:57:18.735Z,9.90
2019-03-24T00:59:47.470Z,9.90
2019-03-24T01:02:15.888Z,9.90
2019-03-24T01:04:44.893Z,9.90
2019-03-24T01:07:14.793Z,9.80
2019-03-24T01:09:43.302Z,9.80
2019-03-24T01:12:11.826Z,9.80
2019-03-24T01:14:40.855Z,9.80
2019-03-24T01:17:10.831Z,9.80
2019-03-24T01:19:39.332Z,9.80
2019-03-24T01:22:07.800Z,9.70
2019-03-24T01:24:36.509Z,9.70
2019-03-24T01:27:05.119Z,9.60
2019-03-24T01:29:33.607Z,9.60
2019-03-24T01:32:02.202Z,9.60
2019-03-24T01:34:30.724Z,9.50
2019-03-24T01:36:59.246Z,9.50
2019-03-24T01:39:27.771Z,9.50
2019-03-24T01:41:56.422Z,9.50
2019-03-24T01:44:24.921Z,9.40
2019-03-24T01:46:53.536Z,9.40
2019-03-24T01:49:22.703Z,9.40
2019-03-24T01:51:51.195Z,9.40
2019-03-24T01:54:19.638Z,9.30
2019-03-24T01:56:48.134Z,9.30
2019-03-24T01:59:16.735Z,9.30
2019-03-24T02:01:45.394Z,9.30
2019-03-24T02:04:13.875Z,9.30
2019-03-24T02:06:42.299Z,9.20
2019-03-24T02:09:10.974Z,9.20
2019-03-24T02:11:39.507Z,9.20
2019-03-24T02:14:08.038Z,9.20
2019-03-24T02:16:36.591Z,9.20
2019-03-24T02:19:05.014Z,9.10
2019-03-24T02:21:36.643Z,9.10
2019-03-24T02:24:05.293Z,9.10
2019-03-24T02:26:34.083Z,9.10
2019-03-24T02:29:02.601Z,9.00
2019-03-24T02:31:31.173Z,9.00
2019-03-24T02:33:59.707Z,9.00
2019-03-24T02:36:28.121Z,9.00
2019-03-24T02:38:56.714Z,9.00
2019-03-24T02:41:25.257Z,9.00
2019-03-24T02:43:53.910Z,8.90
2019-03-24T02:46:24.711Z,8.90
2019-03-24T02:48:52.555Z,9.00
2019-03-24T02:51:20.995Z,9.00
2019-03-24T02:53:49.428Z,9.00
2019-03-24T02:56:17.931Z,8.90
2019-03-24T02:58:46.485Z,8.90
2019-03-24T03:01:15.131Z,8.90
2019-03-24T03:03:43.715Z,8.90
2019-03-24T03:06:12.212Z,8.80
2019-03-24T03:08:40.715Z,8.80
2019-03-24T03:11:09.277Z,8.80
2019-03-24T03:13:37.844Z,8.80
2019-03-24T03:16:06.496Z,8.70
2019-03-24T03:18:34.982Z,8.70
2019-03-24T03:21:03.490Z,8.70
2019-03-24T03:23:32.031Z,8.70
2019-03-24T03:26:00.594Z,8.70
2019-03-24T03:28:29.404Z,8.70
2019-03-24T03:30:57.968Z,8.60
2019-03-24T03:33:26.475Z,8.60
2019-03-24T03:35:54.986Z,8.60
2019-03-24T03:38:23.387Z,8.60
2019-03-24T03:40:52.036Z,8.60
2019-03-24T03:43:20.557Z,8.60
2019-03-24T03:45:49.569Z,8.50
2019-03-24T03:48:18.164Z,8.50
2019-03-24T03:50:46.669Z,8.40
2019-03-24T03:53:15.092Z,8.40
2019-03-24T03:55:43.553Z,8.40
2019-03-24T03:58:12.050Z,8.40
2019-03-24T04:00:40.769Z,8.40
2019-03-24T04:03:09.309Z,8.40
2019-03-24T04:05:37.841Z,8.40
2019-03-24T04:08:06.906Z,8.40
2019-03-24T04:10:35.362Z,8.40
2019-03-24T04:13:03.820Z,8.30
2019-03-24T04:15:32.486Z,8.30
2019-03-24T04:18:01.316Z,8.30
2019-03-24T04:20:29.731Z,8.30
2019-03-24T04:22:58.270Z,8.20
2019-03-24T04:25:26.806Z,8.20
2019-03-24T04:27:55.291Z,8.20
2019-03-24T04:30:23.886Z,8.10
2019-03-24T04:32:52.537Z,8.10
2019-03-24T04:35:21.048Z,8.00
2019-03-24T04:37:49.573Z,8.00
2019-03-24T04:40:18.815Z,8.00
2019-03-24T04:42:47.262Z,8.00
2019-03-24T04:45:15.896Z,8.00
2019-03-24T04:47:44.509Z,8.00
2019-03-24T04:50:13.085Z,8.00
2019-03-24T04:52:41.649Z,8.00
2019-03-24T04:55:10.390Z,8.00
2019-03-24T04:57:38.882Z,8.00
2019-03-24T05:00:09.372Z,8.00
2019-03-24T05:02:37.850Z,8.00
2019-03-24T05:05:09.027Z,8.00
2019-03-24T05:07:38.510Z,8.00
2019-03-24T05:10:08.913Z,7.90
2019-03-24T05:12:37.348Z,7.90
2019-03-24T05:15:06.130Z,7.90
2019-03-24T05:17:34.592Z,7.90
2019-03-24T05:20:03.110Z,7.90
2019-03-24T05:22:31.640Z,7.90
2019-03-24T05:25:00.533Z,7.80
2019-03-24T05:27:29.039Z,7.80
2019-03-24T05:29:57.529Z,7.80
2019-03-24T05:32:26.480Z,7.80
2019-03-24T05:34:54.926Z,7.80
2019-03-24T05:37:23.754Z,7.80
2019-03-24T05:39:52.238Z,7.80
2019-03-24T05:42:20.700Z,7.80
2019-03-24T05:44:49.239Z,7.80
2019-03-24T05:47:17.686Z,7.80
2019-03-24T05:49:46.502Z,7.80
2019-03-24T05:52:15.102Z,7.80
2019-03-24T05:54:44.954Z,7.80
2019-03-24T05:57:13.363Z,7.80
2019-03-24T05:59:41.866Z,7.80
2019-03-24T06:02:10.421Z,7.80
2019-03-24T06:04:49.399Z,7.80
2019-03-24T06:07:18.370Z,7.80
2019-03-24T06:09:48.389Z,7.80
2019-03-24T06:12:17.342Z,7.80
2019-03-24T06:14:45.774Z,7.70
2019-03-24T06:17:14.277Z,7.70
2019-03-24T06:19:42.730Z,7.70
2019-03-24T06:22:11.227Z,7.80
2019-03-24T06:24:39.626Z,7.80
2019-03-24T06:27:08.058Z,7.80
2019-03-24T06:29:36.578Z,7.70
2019-03-24T06:32:05.076Z,7.70
2019-03-24T06:34:33.684Z,7.70
2019-03-24T06:37:05.556Z,7.70
2019-03-24T06:39:33.994Z,7.70
2019-03-24T06:42:02.507Z,7.70
2019-03-24T06:44:30.993Z,7.80
2019-03-24T06:46:58.724Z,7.70
2019-03-24T06:49:27.160Z,7.70
2019-03-24T06:51:57.509Z,7.80
2019-03-24T06:54:25.952Z,7.90
2019-03-24T06:56:54.399Z,7.80
2019-03-24T06:59:22.857Z,7.80
2019-03-24T07:01:51.364Z,7.80
2019-03-24T07:04:20.151Z,7.80
2019-03-24T07:06:48.616Z,7.90
2019-03-24T07:09:17.076Z,7.90
2019-03-24T07:11:46.354Z,8.00
2019-03-24T07:14:15.384Z,8.00
2019-03-24T07:16:43.913Z,8.20
2019-03-24T07:19:12.309Z,8.30
2019-03-24T07:21:40.822Z,8.40
2019-03-24T07:24:09.348Z,8.30
2019-03-24T07:26:37.887Z,8.30
2019-03-24T07:29:06.378Z,8.40
2019-03-24T07:31:34.824Z,8.40
2019-03-24T07:34:03.434Z,8.50
2019-03-24T07:36:32.042Z,8.70
2019-03-24T07:39:00.574Z,9.00
2019-03-24T07:41:29.112Z,9.20
2019-03-24T07:43:57.749Z,9.20
2019-03-24T07:46:26.227Z,9.50
2019-03-24T07:48:54.662Z,9.60
2019-03-24T07:51:23.115Z,9.80
2019-03-24T07:53:51.681Z,10.40
2019-03-24T07:56:20.291Z,10.60
2019-03-24T07:58:48.886Z,10.50
2019-03-24T08:01:20.248Z,10.50
2019-03-24T08:03:48.729Z,10.90
2019-03-24T08:06:17.221Z,11.60
2019-03-24T08:08:45.713Z,11.40
2019-03-24T08:11:14.323Z,12.00
2019-03-24T08:13:53.288Z,12.60
2019-03-24T08:16:13.087Z,13.10
2019-03-24T08:18:41.526Z,13.00
2019-03-24T08:21:10.167Z,12.80
2019-03-24T08:23:38.726Z,13.40
2019-03-24T08:26:07.213Z,13.90
2019-03-24T08:28:35.714Z,14.10
2019-03-24T08:31:04.311Z,13.70
2019-03-24T08:33:36.969Z,13.40
2019-03-24T08:36:05.419Z,13.30
2019-03-24T08:38:34.091Z,13.20
2019-03-24T08:41:02.679Z,13.00
2019-03-24T08:43:31.196Z,12.90
2019-03-24T08:45:59.605Z,12.60
2019-03-24T08:48:28.173Z,12.60
2019-03-24T08:50:56.625Z,12.20
2019-03-24T08:53:25.418Z,12.20
2019-03-24T08:55:53.915Z,12.20
2019-03-24T08:58:22.526Z,11.80
2019-03-24T09:00:51.079Z,12.00
2019-03-24T09:03:19.548Z,12.10
2019-03-24T09:05:48.043Z,12.10
2019-03-24T09:08:16.554Z,12.30
2019-03-24T09:10:44.984Z,12.50
2019-03-24T09:13:13.400Z,12.50
2019-03-24T09:15:43.210Z,12.50
2019-03-24T09:18:11.958Z,12.60
2019-03-24T09:20:41.897Z,13.10
2019-03-24T09:23:10.820Z,13.10
2019-03-24T09:25:39.607Z,12.50
2019-03-24T09:28:09.244Z,12.50
2019-03-24T09:30:38.299Z,13.40
2019-03-24T09:33:06.796Z,14.10
2019-03-24T09:35:38.092Z,14.40
2019-03-24T09:38:07.113Z,14.30
2019-03-24T09:40:36.839Z,14.10
2019-03-24T09:43:05.934Z,14.00
2019-03-24T09:45:34.525Z,13.80
2019-03-24T09:48:03.833Z,14.00
2019-03-24T09:50:32.401Z,14.20
2019-03-24T09:53:00.962Z,14.70
2019-03-24T09:55:29.498Z,15.00
2019-03-24T09:57:58.031Z,15.70
2019-03-24T10:00:26.673Z,16.20
2019-03-24T10:02:55.151Z,16.40
2019-03-24T10:05:23.649Z,16.70
2019-03-24T10:07:52.085Z,16.80
2019-03-24T10:10:20.535Z,16.80
2019-03-24T10:12:49.118Z,17.10
2019-03-24T10:15:17.693Z,17.00
2019-03-24T10:17:46.379Z,16.20
2019-03-24T10:20:14.969Z,16.30
2019-03-24T10:22:47.265Z,16.60
2019-03-24T10:25:15.754Z,16.20
2019-03-24T10:27:44.846Z,16.00
2019-03-24T10:30:14.009Z,16.20
2019-03-24T10:32:42.430Z,15.80
2019-03-24T10:35:11.996Z,16.40
2019-03-24T10:37:40.493Z,17.00
2019-03-24T10:40:09.743Z,18.10
2019-03-24T10:42:38.740Z,18.50
2019-03-24T10:45:08.025Z,18.40
2019-03-24T10:47:36.572Z,19.10
2019-03-24T10:50:09.868Z,19.60
2019-03-24T10:52:38.367Z,20.50
2019-03-24T10:55:09.514Z,21.30
2019-03-24T10:57:38.270Z,21.50
2019-03-24T11:00:09.943Z,22.00
2019-03-24T11:02:38.470Z,22.30
2019-03-24T11:05:07.700Z,21.90
2019-03-24T11:07:36.303Z,21.80
2019-03-24T11:10:07.338Z,21.80
2019-03-24T11:12:35.954Z,21.30
2019-03-24T11:15:07.688Z,20.90
2019-03-24T11:17:36.156Z,20.90
2019-03-24T11:20:07.887Z,20.30
2019-03-24T11:22:36.459Z,18.80
2019-03-24T11:25:08.247Z,19.00
2019-03-24T11:27:36.851Z,19.90
2019-03-24T11:30:09.740Z,20.80
2019-03-24T11:32:38.441Z,20.90
2019-03-24T11:35:08.381Z,20.80
2019-03-24T11:37:36.887Z,20.80
2019-03-24T11:40:08.134Z,20.60
2019-03-24T11:42:38.263Z,19.90
2019-03-24T11:45:08.861Z,20.20
2019-03-24T11:47:37.446Z,20.20
2019-03-24T11:50:08.100Z,20.30
2019-03-24T11:52:36.990Z,20.80
2019-03-24T11:55:09.050Z,20.90
2019-03-24T11:57:37.897Z,21.00
2019-03-24T12:00:11.850Z,20.70
2019-03-24T12:02:40.468Z,20.30
2019-03-24T12:05:09.131Z,20.10
2019-03-24T12:07:37.683Z,20.30
2019-03-24T12:10:08.190Z,19.50
2019-03-24T12:12:36.731Z,19.40
2019-03-24T12:15:06.419Z,19.00
2019-03-24T12:17:34.998Z,18.50
2019-03-24T12:20:05.678Z,19.20
2019-03-24T12:22:34.291Z,19.70
2019-03-24T12:25:02.916Z,19.30
2019-03-24T12:27:31.494Z,19.30
2019-03-24T12:29:59.940Z,19.50
2019-03-24T12:32:28.804Z,20.00
2019-03-24T12:34:57.511Z,20.10
2019-03-24T12:37:26.145Z,19.00
2019-03-24T12:39:54.626Z,18.60
2019-03-24T12:42:24.439Z,19.00
2019-03-24T12:44:53.179Z,19.60
2019-03-24T12:47:22.107Z,19.60
2019-03-24T12:49:50.790Z,18.70
2019-03-24T12:52:19.825Z,19.10
2019-03-24T12:54:50.577Z,18.70
2019-03-24T12:57:19.108Z,18.70
2019-03-24T12:59:48.429Z,18.60
2019-03-24T13:02:17.853Z,18.50
2019-03-24T13:04:46.473Z,18.90
2019-03-24T13:07:15.037Z,18.60
2019-03-24T13:09:43.815Z,18.60
2019-03-24T13:12:18.666Z,18.50
2019-03-24T13:14:52.575Z,18.70
2019-03-24T13:17:21.192Z,18.30
2019-03-24T13:19:49.587Z,17.70
2019-03-24T13:22:18.149Z,17.70
2019-03-24T13:24:46.618Z,17.40
2019-03-24T13:27:15.371Z,16.70
2019-03-24T13:29:43.866Z,16.70
2019-03-24T13:32:14.152Z,16.50
2019-03-24T13:34:42.935Z,16.30
2019-03-24T13:37:11.399Z,16.50
2019-03-24T13:39:39.811Z,16.60
2019-03-24T13:42:09.996Z,15.60
2019-03-24T13:44:38.505Z,15.60
2019-03-24T13:47:14.285Z,15.50
2019-03-24T13:49:43.115Z,15.60
2019-03-24T13:52:12.473Z,15.60
2019-03-24T13:54:41.172Z,15.60
2019-03-24T13:57:09.771Z,15.50
2019-03-24T13:59:38.454Z,15.90
2019-03-24T14:02:07.274Z,16.20
2019-03-24T14:04:37.238Z,16.90
2019-03-24T14:07:05.747Z,17.60
2019-03-24T14:09:34.519Z,17.90
2019-03-24T14:12:03.103Z,18.10
2019-03-24T14:14:31.549Z,18.10
2019-03-24T14:17:00.331Z,18.40
2019-03-24T14:19:28.870Z,18.60
2019-03-24T14:21:57.456Z,18.30
2019-03-24T14:24:25.920Z,17.20
2019-03-24T14:26:54.767Z,16.90
2019-03-24T14:29:23.337Z,17.70
2019-03-24T14:31:51.768Z,18.20
2019-03-24T14:34:23.481Z,18.30
2019-03-24T14:36:51.447Z,18.00
2019-03-24T14:39:21.254Z,18.10
2019-03-24T14:41:49.764Z,18.20
2019-03-24T14:44:18.550Z,18.30
2019-03-24T14:46:47.140Z,17.80
2019-03-24T14:49:15.782Z,17.60
2019-03-24T14:51:44.607Z,17.50
2019-03-24T14:54:13.434Z,17.40
2019-03-24T14:56:42.480Z,17.40
2019-03-24T14:59:11.011Z,17.60
2019-03-24T15:01:39.641Z,17.40
2019-03-24T15:04:08.439Z,17.80
2019-03-24T15:06:37.054Z,17.70
2019-03-24T15:09:07.411Z,17.30
2019-03-24T15:11:36.170Z,17.40
2019-03-24T15:14:05.104Z,17.10
2019-03-24T15:16:33.601Z,16.40
2019-03-24T15:19:02.016Z,15.80
2019-03-24T15:21:31.148Z,15.50
2019-03-24T15:23:59.638Z,15.20
2019-03-24T15:26:28.069Z,14.80
2019-03-24T15:28:57.367Z,14.30
2019-03-24T15:31:25.814Z,14.00
2019-03-24T15:33:54.439Z,13.80
2019-03-24T15:36:24.272Z,13.60
2019-03-24T15:38:52.817Z,13.30
2019-03-24T15:41:21.320Z,13.30
2019-03-24T15:43:50.787Z,12.90
2019-03-24T15:46:19.370Z,12.60
2019-03-24T15:48:50.114Z,12.60
2019-03-24T15:51:21.220Z,12.60
2019-03-24T15:53:50.318Z,12.50
2019-03-24T15:56:19.871Z,12.60
2019-03-24T15:58:49.107Z,12.30
2019-03-24T16:01:17.604Z,12.30
2019-03-24T16:03:46.674Z,12.10
2019-03-24T16:06:15.139Z,12.10
2019-03-24T16:08:43.662Z,12.20
2019-03-24T16:11:16.123Z,12.20
2019-03-24T16:13:45.506Z,12.10
2019-03-24T16:16:15.148Z,12.00
2019-03-24T16:18:43.628Z,12.10
2019-03-24T16:21:13.410Z,12.20
2019-03-24T16:23:42.341Z,12.20
2019-03-24T16:26:10.924Z,12.10
2019-03-24T16:28:41.375Z,12.00
2019-03-24T16:31:10.220Z,12.00
2019-03-24T16:33:38.922Z,12.00
2019-03-24T16:36:07.534Z,12.00
2019-03-24T16:38:36.212Z,11.90
2019-03-24T16:41:05.260Z,11.90
2019-03-24T16:43:37.237Z,11.80
2019-03-24T16:46:05.086Z,11.80
2019-03-24T16:48:37.106Z,11.80
2019-03-24T16:51:03.940Z,11.70
2019-03-24T16:53:32.465Z,11.80
2019-03-24T16:56:01.081Z,11.80
2019-03-24T16:58:30.419Z,11.70
2019-03-24T17:00:59.466Z,11.80
2019-03-24T17:03:28.744Z,11.70
2019-03-24T17:05:57.237Z,11.80
2019-03-24T17:08:25.713Z,11.70
2019-03-24T17:10:54.507Z,11.60
2019-03-24T17:13:23.153Z,11.50
2019-03-24T17:15:51.649Z,11.40
2019-03-24T17:18:20.090Z,11.40
2019-03-24T17:20:48.631Z,11.30
2019-03-24T17:23:17.689Z,11.30
2019-03-24T17:25:46.359Z,11.30
2019-03-24T17:28:14.814Z,11.30
2019-03-24T17:30:43.369Z,11.20
2019-03-24T17:33:11.820Z,11.10
2019-03-24T17:35:40.671Z,11.00
2019-03-24T17:38:09.113Z,11.00
2019-03-24T17:40:39.055Z,11.00
2019-03-24T17:43:07.925Z,10.90
2019-03-24T17:45:36.502Z,10.90
2019-03-24T17:48:05.381Z,10.80
2019-03-24T17:50:34.196Z,10.80
2019-03-24T17:53:02.636Z,10.80
2019-03-24T17:55:31.222Z,10.70
2019-03-24T17:57:59.928Z,10.60
2019-03-24T18:00:41.177Z,10.60
2019-03-24T18:03:09.900Z,10.50
2019-03-24T18:05:38.614Z,10.50
2019-03-24T18:08:07.283Z,10.40
2019-03-24T18:10:36.283Z,10.40
2019-03-24T18:13:05.845Z,10.40
2019-03-24T18:15:34.445Z,10.30
2019-03-24T18:18:03.139Z,10.30
2019-03-24T18:20:33.377Z,10.20
2019-03-24T18:23:02.468Z,10.20
2019-03-24T18:25:31.078Z,10.10
2019-03-24T18:27:59.640Z,10.10
2019-03-24T18:30:28.210Z,10.10
2019-03-24T18:32:56.683Z,10.00
2019-03-24T18:35:25.447Z,10.00
2019-03-24T18:37:54.270Z,9.90
2019-03-24T18:40:22.860Z,9.90
2019-03-24T18:42:51.485Z,9.90
2019-03-24T18:45:20.152Z,9.80
2019-03-24T18:47:48.846Z,9.80
2019-03-24T18:50:17.534Z,9.70
2019-03-24T18:52:46.104Z,9.70
2019-03-24T18:55:14.798Z,9.60
2019-03-24T18:57:43.370Z,9.60
2019-03-24T19:00:13.955Z,9.60
2019-03-24T19:02:42.679Z,9.50
2019-03-24T19:05:11.797Z,9.50
2019-03-24T19:07:40.471Z,9.50
2019-03-24T19:10:11.131Z,9.40
2019-03-24T19:12:39.557Z,9.30
2019-03-24T19:15:10.832Z,9.30
2019-03-24T19:17:39.555Z,9.20
2019-03-24T19:20:08.804Z,9.20
2019-03-24T19:22:37.441Z,9.10
2019-03-24T19:25:10.106Z,9.00
2019-03-24T19:27:39.028Z,9.00
2019-03-24T19:30:13.704Z,8.90
2019-03-24T19:32:42.429Z,8.90
2019-03-24T19:35:11.965Z,8.80
2019-03-24T19:37:42.222Z,8.80
2019-03-24T19:40:31.343Z,8.80
2019-03-24T19:42:59.999Z,8.70
2019-03-24T19:45:28.659Z,8.70
2019-03-24T19:47:57.247Z,8.60
2019-03-24T19:50:26.044Z,8.60
2019-03-24T19:52:55.421Z,8.60
2019-03-24T19:55:24.740Z,8.60
2019-03-24T19:57:53.367Z,8.50
2019-03-24T20:00:21.914Z,8.40
2019-03-24T20:02:50.719Z,8.40
2019-03-24T20:05:19.320Z,8.40
2019-03-24T20:07:48.504Z,8.30
2019-03-24T20:10:18.198Z,8.30
2019-03-24T20:12:47.617Z,8.30
2019-03-24T20:15:17.362Z,8.20
2019-03-24T20:17:46.756Z,8.20
2019-03-24T20:20:15.877Z,8.10
2019-03-24T20:22:55.625Z,8.10
2019-03-24T20:25:14.817Z,8.10
2019-03-24T20:27:43.443Z,8.00
2019-03-24T20:30:13.302Z,8.00
2019-03-24T20:32:42.068Z,7.90
2019-03-24T20:35:10.690Z,7.90
2019-03-24T20:37:39.342Z,7.90
2019-03-24T20:40:08.396Z,7.80
2019-03-24T20:42:37.092Z,7.70
2019-03-24T20:45:07.953Z,7.70
2019-03-24T20:47:36.629Z,7.70
2019-03-24T20:50:09.551Z,7.70
2019-03-24T20:52:38.109Z,7.70
2019-03-24T20:55:07.517Z,7.70
2019-03-24T20:57:38.700Z,7.60
2019-03-24T21:00:08.527Z,7.60
2019-03-24T21:02:36.957Z,7.60
2019-03-24T21:05:07.544Z,7.60
2019-03-24T21:07:36.237Z,7.50
2019-03-24T21:10:06.767Z,7.50
2019-03-24T21:12:35.740Z,7.50
2019-03-24T21:15:07.082Z,7.40
2019-03-24T21:17:35.619Z,7.40
2019-03-24T21:20:07.615Z,7.40
2019-03-24T21:22:35.365Z,7.30
2019-03-24T21:25:05.504Z,7.30
2019-03-24T21:27:34.071Z,7.20
2019-03-24T21:30:02.581Z,7.20
2019-03-24T21:32:31.133Z,7.20
2019-03-24T21:34:59.711Z,7.10
2019-03-24T21:37:28.304Z,7.20
2019-03-24T21:39:56.811Z,7.20
2019-03-24T21:42:25.531Z,7.10
2019-03-24T21:44:53.958Z,7.10
2019-03-24T21:47:22.456Z,7.10
2019-03-24T21:49:50.911Z,7.00
2019-03-24T21:52:19.457Z,7.00
2019-03-24T21:54:48.047Z,7.00
2019-03-24T21:57:16.691Z,7.00
2019-03-24T21:59:45.200Z,6.90
2019-03-24T22:02:13.848Z,6.90
2019-03-24T22:04:42.482Z,6.90
2019-03-24T22:07:11.153Z,6.80
2019-03-24T22:09:39.676Z,6.80
2019-03-24T22:12:08.234Z,6.80
2019-03-24T22:14:36.736Z,6.70
2019-03-24T22:17:05.282Z,6.70
2019-03-24T22:19:33.784Z,6.70
2019-03-24T22:22:02.392Z,6.70
2019-03-24T22:24:30.950Z,6.60
2019-03-24T22:26:59.472Z,6.60
2019-03-24T22:29:27.987Z,6.60
2019-03-24T22:31:56.500Z,6.60
2019-03-24T22:34:25.196Z,6.50
2019-03-24T22:36:53.749Z,6.50
2019-03-24T22:39:22.295Z,6.50
2019-03-24T22:41:53.192Z,6.50
2019-03-24T22:44:21.644Z,6.50
2019-03-24T22:46:50.279Z,6.50
2019-03-24T22:49:18.738Z,6.50
2019-03-24T22:51:47.178Z,6.50
2019-03-24T22:54:15.688Z,6.50
2019-03-24T22:56:44.296Z,6.50
2019-03-24T22:59:14.041Z,6.50
2019-03-24T23:01:42.630Z,6.50
2019-03-24T23:04:11.069Z,6.60
2019-03-24T23:06:39.748Z,6.60
2019-03-24T23:09:09.381Z,6.60
2019-03-24T23:11:38.049Z,6.70
2019-03-24T23:14:06.559Z,6.60
2019-03-24T23:16:35.211Z,6.60
2019-03-24T23:19:03.804Z,6.50
2019-03-24T23:21:32.283Z,6.50
2019-03-24T23:24:00.751Z,6.50
2019-03-24T23:26:29.287Z,6.50
2019-03-24T23:28:57.828Z,6.40
2019-03-24T23:31:26.330Z,6.40
2019-03-24T23:33:54.762Z,6.40
2019-03-24T23:36:23.194Z,6.40
2019-03-24T23:38:51.657Z,6.40
2019-03-24T23:41:20.107Z,6.40
2019-03-24T23:43:48.617Z,6.40
2019-03-24T23:46:17.096Z,6.40
2019-03-24T23:48:45.666Z,6.40
2019-03-24T23:51:14.091Z,6.40
2019-03-24T23:53:42.575Z,6.40
2019-03-24T23:56:11.093Z,6.40
2019-03-24T23:58:41.123Z,6.40
